sensor_id;sensor_type;location;lat;lon;timestamp;P1;durP1;ratioP1;P2;durP2;ratioP2
28545;SDS011;15749;49.606;8.738;2023-03-13T00:01:34;5.33;;;1.63;;
28545;SDS011;15749;49.606;8.738;2023-03-13T00:04:08;4.13;;;1.40;;
28545;SDS011;15749;49.606;8.738;2023-03-13T00:06:37;4.80;;;1.67;;
28545;SDS011;15749;49.606;8.738;2023-03-13T00:09:09;4.20;;;1.30;;
28545;SDS011;15749;49.606;8.738;2023-03-13T00:11:44;5.07;;;1.50;;
28545;SDS011;15749;49.606;8.738;2023-03-13T00:14:13;3.00;;;1.23;;
28545;SDS011;15749;49.606;8.738;2023-03-13T00:16:42;3.17;;;1.40;;
28545;SDS011;15749;49.606;8.738;2023-03-13T00:19:11;4.30;;;1.40;;
28545;SDS011;15749;49.606;8.738;2023-03-13T00:21:42;4.27;;;1.50;;
28545;SDS011;15749;49.606;8.738;2023-03-13T00:24:12;3.83;;;1.43;;
28545;SDS011;15749;49.606;8.738;2023-03-13T00:26:42;2.60;;;1.10;;
28545;SDS011;15749;49.606;8.738;2023-03-13T00:29:11;5.97;;;1.50;;
28545;SDS011;15749;49.606;8.738;2023-03-13T00:31:40;5.17;;;1.67;;
28545;SDS011;15749;49.606;8.738;2023-03-13T00:34:10;4.50;;;1.70;;
28545;SDS011;15749;49.606;8.738;2023-03-13T00:36:39;4.17;;;1.50;;
28545;SDS011;15749;49.606;8.738;2023-03-13T00:39:08;4.23;;;1.50;;
28545;SDS011;15749;49.606;8.738;2023-03-13T00:41:38;4.23;;;1.50;;
28545;SDS011;15749;49.606;8.738;2023-03-13T00:44:07;4.87;;;1.37;;
28545;SDS011;15749;49.606;8.738;2023-03-13T00:46:36;2.57;;;1.23;;
28545;SDS011;15749;49.606;8.738;2023-03-13T00:49:05;4.37;;;1.67;;
28545;SDS011;15749;49.606;8.738;2023-03-13T00:51:34;4.00;;;1.40;;
28545;SDS011;15749;49.606;8.738;2023-03-13T00:54:06;2.80;;;1.30;;
28545;SDS011;15749;49.606;8.738;2023-03-13T00:56:36;2.93;;;1.20;;
28545;SDS011;15749;49.606;8.738;2023-03-13T00:59:06;3.33;;;1.03;;
28545;SDS011;15749;49.606;8.738;2023-03-13T01:01:36;3.73;;;1.30;;
28545;SDS011;15749;49.606;8.738;2023-03-13T01:04:06;4.13;;;1.50;;
28545;SDS011;15749;49.606;8.738;2023-03-13T01:06:37;5.13;;;1.70;;
28545;SDS011;15749;49.606;8.738;2023-03-13T01:09:13;4.37;;;1.60;;
28545;SDS011;15749;49.606;8.738;2023-03-13T01:11:44;2.87;;;1.23;;
28545;SDS011;15749;49.606;8.738;2023-03-13T01:14:17;4.97;;;1.30;;
28545;SDS011;15749;49.606;8.738;2023-03-13T01:16:47;3.83;;;1.20;;
28545;SDS011;15749;49.606;8.738;2023-03-13T01:19:16;2.93;;;1.33;;
28545;SDS011;15749;49.606;8.738;2023-03-13T01:21:45;4.67;;;1.53;;
28545;SDS011;15749;49.606;8.738;2023-03-13T01:24:15;2.87;;;1.17;;
28545;SDS011;15749;49.606;8.738;2023-03-13T01:26:48;2.90;;;1.50;;
28545;SDS011;15749;49.606;8.738;2023-03-13T01:29:17;5.17;;;1.10;;
28545;SDS011;15749;49.606;8.738;2023-03-13T01:31:46;3.97;;;1.40;;
28545;SDS011;15749;49.606;8.738;2023-03-13T01:34:15;5.33;;;1.20;;
28545;SDS011;15749;49.606;8.738;2023-03-13T01:36:44;2.63;;;1.20;;
28545;SDS011;15749;49.606;8.738;2023-03-13T01:39:16;3.80;;;1.33;;
28545;SDS011;15749;49.606;8.738;2023-03-13T01:41:45;3.17;;;1.30;;
28545;SDS011;15749;49.606;8.738;2023-03-13T01:44:19;2.07;;;1.33;;
28545;SDS011;15749;49.606;8.738;2023-03-13T01:46:52;3.87;;;1.37;;
28545;SDS011;15749;49.606;8.738;2023-03-13T01:49:25;2.67;;;1.13;;
28545;SDS011;15749;49.606;8.738;2023-03-13T01:52:18;3.50;;;1.20;;
28545;SDS011;15749;49.606;8.738;2023-03-13T01:55:05;3.47;;;1.13;;
28545;SDS011;15749;49.606;8.738;2023-03-13T01:57:42;2.77;;;1.07;;
28545;SDS011;15749;49.606;8.738;2023-03-13T02:00:16;2.87;;;1.23;;
28545;SDS011;15749;49.606;8.738;2023-03-13T02:02:49;2.03;;;1.13;;
28545;SDS011;15749;49.606;8.738;2023-03-13T02:05:23;3.27;;;1.27;;
28545;SDS011;15749;49.606;8.738;2023-03-13T02:07:55;4.33;;;1.43;;
28545;SDS011;15749;49.606;8.738;2023-03-13T02:10:30;2.67;;;1.30;;
28545;SDS011;15749;49.606;8.738;2023-03-13T02:13:05;2.97;;;1.40;;
28545;SDS011;15749;49.606;8.738;2023-03-13T02:15:37;4.13;;;1.37;;
28545;SDS011;15749;49.606;8.738;2023-03-13T02:18:09;1.93;;;0.93;;
28545;SDS011;15749;49.606;8.738;2023-03-13T02:20:38;2.97;;;1.27;;
28545;SDS011;15749;49.606;8.738;2023-03-13T02:23:11;4.27;;;1.10;;
28545;SDS011;15749;49.606;8.738;2023-03-13T02:25:49;3.57;;;1.33;;
28545;SDS011;15749;49.606;8.738;2023-03-13T02:28:26;3.23;;;1.20;;
28545;SDS011;15749;49.606;8.738;2023-03-13T02:31:02;4.03;;;1.40;;
28545;SDS011;15749;49.606;8.738;2023-03-13T02:33:34;4.13;;;1.27;;
28545;SDS011;15749;49.606;8.738;2023-03-13T02:36:07;3.47;;;1.20;;
28545;SDS011;15749;49.606;8.738;2023-03-13T02:38:38;3.43;;;1.30;;
28545;SDS011;15749;49.606;8.738;2023-03-13T02:41:14;3.03;;;1.17;;
28545;SDS011;15749;49.606;8.738;2023-03-13T02:43:44;2.70;;;1.07;;
28545;SDS011;15749;49.606;8.738;2023-03-13T02:46:14;2.47;;;0.90;;
28545;SDS011;15749;49.606;8.738;2023-03-13T02:48:49;2.63;;;1.23;;
28545;SDS011;15749;49.606;8.738;2023-03-13T02:51:24;2.37;;;0.93;;
28545;SDS011;15749;49.606;8.738;2023-03-13T02:53:59;4.33;;;1.30;;
28545;SDS011;15749;49.606;8.738;2023-03-13T02:56:32;2.77;;;0.93;;
28545;SDS011;15749;49.606;8.738;2023-03-13T02:59:05;3.07;;;1.10;;
28545;SDS011;15749;49.606;8.738;2023-03-13T03:01:38;3.63;;;1.57;;
28545;SDS011;15749;49.606;8.738;2023-03-13T03:04:10;4.30;;;1.67;;
28545;SDS011;15749;49.606;8.738;2023-03-13T03:06:39;2.50;;;1.10;;
28545;SDS011;15749;49.606;8.738;2023-03-13T03:09:08;1.70;;;1.03;;
28545;SDS011;15749;49.606;8.738;2023-03-13T03:11:39;2.13;;;1.00;;
28545;SDS011;15749;49.606;8.738;2023-03-13T03:14:12;3.47;;;1.20;;
28545;SDS011;15749;49.606;8.738;2023-03-13T03:16:47;4.00;;;1.33;;
28545;SDS011;15749;49.606;8.738;2023-03-13T03:19:16;2.10;;;1.10;;
28545;SDS011;15749;49.606;8.738;2023-03-13T03:21:46;2.90;;;0.90;;
28545;SDS011;15749;49.606;8.738;2023-03-13T03:24:18;3.00;;;1.00;;
28545;SDS011;15749;49.606;8.738;2023-03-13T03:26:48;2.97;;;1.10;;
28545;SDS011;15749;49.606;8.738;2023-03-13T03:29:24;1.87;;;0.93;;
28545;SDS011;15749;49.606;8.738;2023-03-13T03:31:55;3.20;;;1.27;;
28545;SDS011;15749;49.606;8.738;2023-03-13T03:34:24;4.07;;;1.40;;
28545;SDS011;15749;49.606;8.738;2023-03-13T03:36:55;3.33;;;1.00;;
28545;SDS011;15749;49.606;8.738;2023-03-13T03:39:25;2.60;;;1.00;;
28545;SDS011;15749;49.606;8.738;2023-03-13T03:41:56;2.10;;;1.00;;
28545;SDS011;15749;49.606;8.738;2023-03-13T03:44:26;2.70;;;0.93;;
28545;SDS011;15749;49.606;8.738;2023-03-13T03:46:58;1.53;;;0.80;;
28545;SDS011;15749;49.606;8.738;2023-03-13T03:49:31;1.97;;;0.80;;
28545;SDS011;15749;49.606;8.738;2023-03-13T03:52:01;3.17;;;1.10;;
28545;SDS011;15749;49.606;8.738;2023-03-13T03:54:35;1.93;;;0.87;;
28545;SDS011;15749;49.606;8.738;2023-03-13T03:57:05;2.53;;;1.00;;
28545;SDS011;15749;49.606;8.738;2023-03-13T03:59:36;2.73;;;1.17;;
28545;SDS011;15749;49.606;8.738;2023-03-13T04:02:07;1.57;;;0.77;;
28545;SDS011;15749;49.606;8.738;2023-03-13T04:04:38;2.43;;;0.90;;
28545;SDS011;15749;49.606;8.738;2023-03-13T04:07:33;4.40;;;1.27;;
28545;SDS011;15749;49.606;8.738;2023-03-13T04:10:03;2.97;;;0.90;;
28545;SDS011;15749;49.606;8.738;2023-03-13T04:12:39;2.57;;;0.90;;
28545;SDS011;15749;49.606;8.738;2023-03-13T04:15:09;1.90;;;0.90;;
28545;SDS011;15749;49.606;8.738;2023-03-13T04:17:39;1.97;;;0.80;;
28545;SDS011;15749;49.606;8.738;2023-03-13T04:20:10;1.83;;;0.77;;
28545;SDS011;15749;49.606;8.738;2023-03-13T04:22:40;1.77;;;0.80;;
28545;SDS011;15749;49.606;8.738;2023-03-13T04:25:11;1.77;;;0.70;;
28545;SDS011;15749;49.606;8.738;2023-03-13T04:27:44;2.87;;;0.80;;
28545;SDS011;15749;49.606;8.738;2023-03-13T04:30:13;1.20;;;0.63;;
28545;SDS011;15749;49.606;8.738;2023-03-13T04:33:13;6.57;;;0.93;;
28545;SDS011;15749;49.606;8.738;2023-03-13T04:36:14;1.60;;;0.67;;
28545;SDS011;15749;49.606;8.738;2023-03-13T04:39:09;2.17;;;0.80;;
28545;SDS011;15749;49.606;8.738;2023-03-13T04:41:57;1.30;;;0.70;;
28545;SDS011;15749;49.606;8.738;2023-03-13T04:44:45;0.70;;;0.57;;
28545;SDS011;15749;49.606;8.738;2023-03-13T04:47:23;1.47;;;0.60;;
28545;SDS011;15749;49.606;8.738;2023-03-13T04:50:24;1.27;;;0.63;;
28545;SDS011;15749;49.606;8.738;2023-03-13T04:53:07;1.43;;;0.60;;
28545;SDS011;15749;49.606;8.738;2023-03-13T04:55:59;2.10;;;0.80;;
28545;SDS011;15749;49.606;8.738;2023-03-13T04:58:47;11.93;;;1.07;;
28545;SDS011;15749;49.606;8.738;2023-03-13T05:01:38;1.30;;;0.70;;
28545;SDS011;15749;49.606;8.738;2023-03-13T05:04:09;2.43;;;0.70;;
28545;SDS011;15749;49.606;8.738;2023-03-13T05:06:52;1.37;;;0.60;;
28545;SDS011;15749;49.606;8.738;2023-03-13T05:09:42;1.23;;;0.80;;
28545;SDS011;15749;49.606;8.738;2023-03-13T05:12:32;1.43;;;0.90;;
28545;SDS011;15749;49.606;8.738;2023-03-13T05:15:30;1.13;;;0.63;;
28545;SDS011;15749;49.606;8.738;2023-03-13T05:18:20;1.00;;;0.50;;
28545;SDS011;15749;49.606;8.738;2023-03-13T05:21:08;0.73;;;0.50;;
28545;SDS011;15749;49.606;8.738;2023-03-13T05:23:53;1.17;;;0.60;;
28545;SDS011;15749;49.606;8.738;2023-03-13T05:26:44;1.37;;;0.53;;
28545;SDS011;15749;49.606;8.738;2023-03-13T05:29:20;1.17;;;0.60;;
28545;SDS011;15749;49.606;8.738;2023-03-13T05:32:05;1.73;;;0.63;;
28545;SDS011;15749;49.606;8.738;2023-03-13T05:34:39;1.33;;;0.60;;
28545;SDS011;15749;49.606;8.738;2023-03-13T05:37:39;0.90;;;0.60;;
28545;SDS011;15749;49.606;8.738;2023-03-13T05:40:37;1.53;;;0.70;;
28545;SDS011;15749;49.606;8.738;2023-03-13T05:43:30;1.07;;;0.60;;
28545;SDS011;15749;49.606;8.738;2023-03-13T05:46:18;1.73;;;0.50;;
28545;SDS011;15749;49.606;8.738;2023-03-13T05:49:08;1.57;;;0.70;;
28545;SDS011;15749;49.606;8.738;2023-03-13T05:51:59;0.93;;;0.60;;
28545;SDS011;15749;49.606;8.738;2023-03-13T05:54:55;1.90;;;0.70;;
28545;SDS011;15749;49.606;8.738;2023-03-13T05:57:43;1.40;;;0.80;;
28545;SDS011;15749;49.606;8.738;2023-03-13T06:00:33;0.93;;;0.53;;
28545;SDS011;15749;49.606;8.738;2023-03-13T06:03:32;0.93;;;0.43;;
28545;SDS011;15749;49.606;8.738;2023-03-13T06:06:03;1.73;;;0.70;;
28545;SDS011;15749;49.606;8.738;2023-03-13T06:08:45;1.40;;;0.60;;
28545;SDS011;15749;49.606;8.738;2023-03-13T06:11:15;1.00;;;0.40;;
28545;SDS011;15749;49.606;8.738;2023-03-13T06:13:45;1.00;;;0.50;;
28545;SDS011;15749;49.606;8.738;2023-03-13T06:16:41;1.17;;;0.70;;
28545;SDS011;15749;49.606;8.738;2023-03-13T06:19:18;0.77;;;0.50;;
28545;SDS011;15749;49.606;8.738;2023-03-13T06:21:49;2.10;;;0.57;;
28545;SDS011;15749;49.606;8.738;2023-03-13T06:24:20;0.67;;;0.50;;
28545;SDS011;15749;49.606;8.738;2023-03-13T06:26:50;0.83;;;0.47;;
28545;SDS011;15749;49.606;8.738;2023-03-13T06:29:19;0.70;;;0.50;;
28545;SDS011;15749;49.606;8.738;2023-03-13T06:31:50;1.50;;;0.70;;
28545;SDS011;15749;49.606;8.738;2023-03-13T06:34:22;0.77;;;0.50;;
28545;SDS011;15749;49.606;8.738;2023-03-13T06:36:51;1.33;;;0.60;;
28545;SDS011;15749;49.606;8.738;2023-03-13T06:39:21;1.13;;;0.70;;
28545;SDS011;15749;49.606;8.738;2023-03-13T06:41:51;0.63;;;0.60;;
28545;SDS011;15749;49.606;8.738;2023-03-13T06:44:20;2.33;;;0.70;;
28545;SDS011;15749;49.606;8.738;2023-03-13T06:46:50;0.43;;;0.33;;
28545;SDS011;15749;49.606;8.738;2023-03-13T06:49:19;0.90;;;0.50;;
28545;SDS011;15749;49.606;8.738;2023-03-13T06:51:49;2.70;;;1.00;;
28545;SDS011;15749;49.606;8.738;2023-03-13T06:54:18;1.77;;;0.80;;
28545;SDS011;15749;49.606;8.738;2023-03-13T06:56:49;1.33;;;0.67;;
28545;SDS011;15749;49.606;8.738;2023-03-13T06:59:19;0.50;;;0.43;;
28545;SDS011;15749;49.606;8.738;2023-03-13T07:01:48;0.50;;;0.40;;
28545;SDS011;15749;49.606;8.738;2023-03-13T07:04:18;0.73;;;0.40;;
28545;SDS011;15749;49.606;8.738;2023-03-13T07:06:47;0.40;;;0.40;;
28545;SDS011;15749;49.606;8.738;2023-03-13T07:09:18;1.30;;;0.40;;
28545;SDS011;15749;49.606;8.738;2023-03-13T07:11:49;0.43;;;0.40;;
28545;SDS011;15749;49.606;8.738;2023-03-13T07:14:18;0.83;;;0.40;;
28545;SDS011;15749;49.606;8.738;2023-03-13T07:16:48;1.07;;;0.50;;
28545;SDS011;15749;49.606;8.738;2023-03-13T07:19:17;0.70;;;0.40;;
28545;SDS011;15749;49.606;8.738;2023-03-13T07:21:47;0.83;;;0.40;;
28545;SDS011;15749;49.606;8.738;2023-03-13T07:24:18;0.53;;;0.30;;
28545;SDS011;15749;49.606;8.738;2023-03-13T07:26:49;1.77;;;0.40;;
28545;SDS011;15749;49.606;8.738;2023-03-13T07:29:33;0.70;;;0.40;;
28545;SDS011;15749;49.606;8.738;2023-03-13T07:32:02;0.30;;;0.30;;
28545;SDS011;15749;49.606;8.738;2023-03-13T07:34:33;0.73;;;0.40;;
28545;SDS011;15749;49.606;8.738;2023-03-13T07:37:02;0.87;;;0.63;;
28545;SDS011;15749;49.606;8.738;2023-03-13T07:39:31;0.60;;;0.40;;
28545;SDS011;15749;49.606;8.738;2023-03-13T07:42:02;0.80;;;0.40;;
28545;SDS011;15749;49.606;8.738;2023-03-13T07:44:33;0.60;;;0.37;;
28545;SDS011;15749;49.606;8.738;2023-03-13T07:47:02;0.93;;;0.53;;
28545;SDS011;15749;49.606;8.738;2023-03-13T07:49:33;0.50;;;0.50;;
28545;SDS011;15749;49.606;8.738;2023-03-13T07:52:07;0.50;;;0.40;;
28545;SDS011;15749;49.606;8.738;2023-03-13T07:54:36;0.30;;;0.30;;
28545;SDS011;15749;49.606;8.738;2023-03-13T07:57:07;0.40;;;0.40;;
28545;SDS011;15749;49.606;8.738;2023-03-13T07:59:37;0.43;;;0.30;;
28545;SDS011;15749;49.606;8.738;2023-03-13T08:02:07;0.73;;;0.40;;
28545;SDS011;15749;49.606;8.738;2023-03-13T08:04:37;1.40;;;0.50;;
28545;SDS011;15749;49.606;8.738;2023-03-13T08:07:07;0.70;;;0.40;;
28545;SDS011;15749;49.606;8.738;2023-03-13T08:09:37;2.73;;;0.30;;
28545;SDS011;15749;49.606;8.738;2023-03-13T08:12:09;0.70;;;0.40;;
28545;SDS011;15749;49.606;8.738;2023-03-13T08:14:38;0.70;;;0.30;;
28545;SDS011;15749;49.606;8.738;2023-03-13T08:17:08;0.67;;;0.40;;
28545;SDS011;15749;49.606;8.738;2023-03-13T08:19:37;0.70;;;0.40;;
28545;SDS011;15749;49.606;8.738;2023-03-13T08:22:07;0.50;;;0.40;;
28545;SDS011;15749;49.606;8.738;2023-03-13T08:24:36;0.57;;;0.57;;
28545;SDS011;15749;49.606;8.738;2023-03-13T08:27:05;0.67;;;0.60;;
28545;SDS011;15749;49.606;8.738;2023-03-13T08:29:36;0.40;;;0.30;;
28545;SDS011;15749;49.606;8.738;2023-03-13T08:32:06;1.07;;;0.47;;
28545;SDS011;15749;49.606;8.738;2023-03-13T08:34:37;1.37;;;0.50;;
28545;SDS011;15749;49.606;8.738;2023-03-13T08:37:06;0.50;;;0.50;;
28545;SDS011;15749;49.606;8.738;2023-03-13T08:39:36;0.80;;;0.50;;
28545;SDS011;15749;49.606;8.738;2023-03-13T08:42:06;0.57;;;0.43;;
28545;SDS011;15749;49.606;8.738;2023-03-13T08:44:42;0.60;;;0.57;;
28545;SDS011;15749;49.606;8.738;2023-03-13T08:47:12;1.00;;;0.50;;
28545;SDS011;15749;49.606;8.738;2023-03-13T08:49:41;0.80;;;0.60;;
28545;SDS011;15749;49.606;8.738;2023-03-13T08:52:11;1.13;;;0.60;;
28545;SDS011;15749;49.606;8.738;2023-03-13T08:54:41;1.43;;;0.60;;
28545;SDS011;15749;49.606;8.738;2023-03-13T08:57:10;0.80;;;0.53;;
28545;SDS011;15749;49.606;8.738;2023-03-13T08:59:41;0.90;;;0.60;;
28545;SDS011;15749;49.606;8.738;2023-03-13T09:02:10;1.10;;;0.70;;
28545;SDS011;15749;49.606;8.738;2023-03-13T09:04:46;1.87;;;0.80;;
28545;SDS011;15749;49.606;8.738;2023-03-13T09:07:15;0.70;;;0.70;;
28545;SDS011;15749;49.606;8.738;2023-03-13T09:09:45;0.70;;;0.50;;
28545;SDS011;15749;49.606;8.738;2023-03-13T09:12:14;0.60;;;0.60;;
28545;SDS011;15749;49.606;8.738;2023-03-13T09:14:58;1.13;;;0.70;;
28545;SDS011;15749;49.606;8.738;2023-03-13T09:17:27;1.30;;;0.70;;
28545;SDS011;15749;49.606;8.738;2023-03-13T09:19:57;1.10;;;0.70;;
28545;SDS011;15749;49.606;8.738;2023-03-13T09:22:27;0.60;;;0.60;;
28545;SDS011;15749;49.606;8.738;2023-03-13T09:24:57;1.33;;;0.60;;
28545;SDS011;15749;49.606;8.738;2023-03-13T09:27:26;0.90;;;0.70;;
28545;SDS011;15749;49.606;8.738;2023-03-13T09:29:55;1.40;;;0.70;;
28545;SDS011;15749;49.606;8.738;2023-03-13T09:32:26;2.47;;;0.60;;
28545;SDS011;15749;49.606;8.738;2023-03-13T09:34:56;1.13;;;0.60;;
28545;SDS011;15749;49.606;8.738;2023-03-13T09:37:25;1.20;;;0.80;;
28545;SDS011;15749;49.606;8.738;2023-03-13T09:39:55;0.70;;;0.70;;
28545;SDS011;15749;49.606;8.738;2023-03-13T09:42:28;1.07;;;0.70;;
28545;SDS011;15749;49.606;8.738;2023-03-13T09:45:14;0.90;;;0.80;;
28545;SDS011;15749;49.606;8.738;2023-03-13T09:47:54;1.30;;;0.70;;
28545;SDS011;15749;49.606;8.738;2023-03-13T09:50:30;1.70;;;0.70;;
28545;SDS011;15749;49.606;8.738;2023-03-13T09:53:04;0.83;;;0.70;;
28545;SDS011;15749;49.606;8.738;2023-03-13T09:55:44;1.10;;;0.83;;
28545;SDS011;15749;49.606;8.738;2023-03-13T09:58:23;0.77;;;0.63;;
28545;SDS011;15749;49.606;8.738;2023-03-13T10:01:03;0.70;;;0.53;;
28545;SDS011;15749;49.606;8.738;2023-03-13T10:03:39;0.73;;;0.53;;
28545;SDS011;15749;49.606;8.738;2023-03-13T10:06:18;2.60;;;0.60;;
28545;SDS011;15749;49.606;8.738;2023-03-13T10:08:52;1.10;;;0.60;;
28545;SDS011;15749;49.606;8.738;2023-03-13T10:11:30;0.93;;;0.60;;
28545;SDS011;15749;49.606;8.738;2023-03-13T10:14:13;1.57;;;0.70;;
28545;SDS011;15749;49.606;8.738;2023-03-13T10:16:55;0.97;;;0.53;;
28545;SDS011;15749;49.606;8.738;2023-03-13T10:19:33;1.13;;;0.70;;
28545;SDS011;15749;49.606;8.738;2023-03-13T10:22:11;1.30;;;0.70;;
28545;SDS011;15749;49.606;8.738;2023-03-13T10:24:46;0.80;;;0.77;;
28545;SDS011;15749;49.606;8.738;2023-03-13T10:27:22;3.97;;;0.70;;
28545;SDS011;15749;49.606;8.738;2023-03-13T10:29:52;1.00;;;0.80;;
28545;SDS011;15749;49.606;8.738;2023-03-13T10:32:25;0.57;;;0.57;;
28545;SDS011;15749;49.606;8.738;2023-03-13T10:34:56;1.40;;;1.00;;
28545;SDS011;15749;49.606;8.738;2023-03-13T10:37:28;1.03;;;0.80;;
28545;SDS011;15749;49.606;8.738;2023-03-13T10:40:10;2.17;;;1.00;;
28545;SDS011;15749;49.606;8.738;2023-03-13T10:42:43;1.07;;;0.60;;
28545;SDS011;15749;49.606;8.738;2023-03-13T10:45:15;1.63;;;0.63;;
28545;SDS011;15749;49.606;8.738;2023-03-13T10:47:59;2.10;;;0.90;;
28545;SDS011;15749;49.606;8.738;2023-03-13T10:50:31;1.00;;;0.80;;
28545;SDS011;15749;49.606;8.738;2023-03-13T10:53:07;0.77;;;0.73;;
28545;SDS011;15749;49.606;8.738;2023-03-13T10:55:52;1.60;;;0.80;;
28545;SDS011;15749;49.606;8.738;2023-03-13T10:58:26;2.13;;;0.80;;
28545;SDS011;15749;49.606;8.738;2023-03-13T11:01:16;1.70;;;0.90;;
28545;SDS011;15749;49.606;8.738;2023-03-13T11:03:51;1.23;;;0.70;;
28545;SDS011;15749;49.606;8.738;2023-03-13T11:06:24;0.90;;;0.67;;
28545;SDS011;15749;49.606;8.738;2023-03-13T11:09:09;0.93;;;0.77;;
28545;SDS011;15749;49.606;8.738;2023-03-13T11:11:42;3.13;;;0.80;;
28545;SDS011;15749;49.606;8.738;2023-03-13T11:14:17;0.90;;;0.70;;
28545;SDS011;15749;49.606;8.738;2023-03-13T11:16:48;0.70;;;0.70;;
28545;SDS011;15749;49.606;8.738;2023-03-13T11:19:33;0.90;;;0.50;;
28545;SDS011;15749;49.606;8.738;2023-03-13T11:22:19;3.63;;;0.77;;
28545;SDS011;15749;49.606;8.738;2023-03-13T11:25:01;1.50;;;0.77;;
28545;SDS011;15749;49.606;8.738;2023-03-13T11:27:45;2.93;;;0.70;;
28545;SDS011;15749;49.606;8.738;2023-03-13T11:30:40;1.53;;;0.90;;
28545;SDS011;15749;49.606;8.738;2023-03-13T11:33:20;1.10;;;0.60;;
28545;SDS011;15749;49.606;8.738;2023-03-13T11:36:03;0.90;;;0.70;;
28545;SDS011;15749;49.606;8.738;2023-03-13T11:38:42;0.73;;;0.60;;
28545;SDS011;15749;49.606;8.738;2023-03-13T11:41:20;1.23;;;0.70;;
28545;SDS011;15749;49.606;8.738;2023-03-13T11:44:04;1.73;;;0.80;;
28545;SDS011;15749;49.606;8.738;2023-03-13T11:46:52;1.37;;;0.80;;
28545;SDS011;15749;49.606;8.738;2023-03-13T11:49:41;0.97;;;0.80;;
28545;SDS011;15749;49.606;8.738;2023-03-13T11:52:47;1.97;;;0.70;;
28545;SDS011;15749;49.606;8.738;2023-03-13T11:55:43;1.70;;;0.73;;
28545;SDS011;15749;49.606;8.738;2023-03-13T11:58:25;2.00;;;0.93;;
28545;SDS011;15749;49.606;8.738;2023-03-13T12:01:29;1.87;;;1.10;;
28545;SDS011;15749;49.606;8.738;2023-03-13T12:04:03;1.20;;;0.70;;
28545;SDS011;15749;49.606;8.738;2023-03-13T12:06:42;4.50;;;1.10;;
28545;SDS011;15749;49.606;8.738;2023-03-13T12:09:18;1.60;;;0.70;;
28545;SDS011;15749;49.606;8.738;2023-03-13T12:11:56;5.30;;;1.00;;
28545;SDS011;15749;49.606;8.738;2023-03-13T12:14:32;1.17;;;0.83;;
28545;SDS011;15749;49.606;8.738;2023-03-13T12:17:05;2.47;;;0.80;;
28545;SDS011;15749;49.606;8.738;2023-03-13T12:19:43;1.57;;;1.00;;
28545;SDS011;15749;49.606;8.738;2023-03-13T12:22:22;1.63;;;0.70;;
28545;SDS011;15749;49.606;8.738;2023-03-13T12:25:01;1.63;;;0.83;;
28545;SDS011;15749;49.606;8.738;2023-03-13T12:27:38;1.40;;;0.73;;
28545;SDS011;15749;49.606;8.738;2023-03-13T12:30:18;1.00;;;0.70;;
28545;SDS011;15749;49.606;8.738;2023-03-13T12:32:58;0.70;;;0.70;;
28545;SDS011;15749;49.606;8.738;2023-03-13T12:35:38;1.70;;;0.80;;
28545;SDS011;15749;49.606;8.738;2023-03-13T12:38:13;1.00;;;0.90;;
28545;SDS011;15749;49.606;8.738;2023-03-13T12:40:50;3.67;;;0.90;;
28545;SDS011;15749;49.606;8.738;2023-03-13T12:43:30;0.73;;;0.73;;
28545;SDS011;15749;49.606;8.738;2023-03-13T12:46:10;1.33;;;0.70;;
28545;SDS011;15749;49.606;8.738;2023-03-13T12:49:15;1.10;;;0.70;;
28545;SDS011;15749;49.606;8.738;2023-03-13T12:55:39;1.17;;;0.80;;
28545;SDS011;15749;49.606;8.738;2023-03-13T12:58:42;1.90;;;0.77;;
28545;SDS011;15749;49.606;8.738;2023-03-13T13:01:18;3.27;;;1.57;;
28545;SDS011;15749;49.606;8.738;2023-03-13T13:03:59;1.93;;;0.87;;
28545;SDS011;15749;49.606;8.738;2023-03-13T13:06:49;1.73;;;1.07;;
28545;SDS011;15749;49.606;8.738;2023-03-13T13:09:26;1.43;;;0.67;;
28545;SDS011;15749;49.606;8.738;2023-03-13T13:11:59;2.37;;;0.80;;
28545;SDS011;15749;49.606;8.738;2023-03-13T13:17:55;0.70;;;0.60;;
28545;SDS011;15749;49.606;8.738;2023-03-13T13:20:36;1.50;;;0.70;;
28545;SDS011;15749;49.606;8.738;2023-03-13T13:23:20;1.10;;;0.77;;
28545;SDS011;15749;49.606;8.738;2023-03-13T13:35:25;3.13;;;1.10;;
28545;SDS011;15749;49.606;8.738;2023-03-13T13:41:04;0.90;;;0.77;;
28545;SDS011;15749;49.606;8.738;2023-03-13T13:44:21;1.17;;;0.73;;
28545;SDS011;15749;49.606;8.738;2023-03-13T13:46:55;0.73;;;0.57;;
28545;SDS011;15749;49.606;8.738;2023-03-13T13:49:36;0.93;;;0.70;;
28545;SDS011;15749;49.606;8.738;2023-03-13T13:52:32;0.80;;;0.70;;
28545;SDS011;15749;49.606;8.738;2023-03-13T13:58:12;1.53;;;0.90;;
28545;SDS011;15749;49.606;8.738;2023-03-13T14:00:50;1.20;;;0.80;;
28545;SDS011;15749;49.606;8.738;2023-03-13T14:03:24;3.47;;;0.90;;
28545;SDS011;15749;49.606;8.738;2023-03-13T14:05:58;1.70;;;0.93;;
28545;SDS011;15749;49.606;8.738;2023-03-13T14:08:31;0.80;;;0.70;;
28545;SDS011;15749;49.606;8.738;2023-03-13T14:11:07;1.17;;;0.90;;
28545;SDS011;15749;49.606;8.738;2023-03-13T14:14:09;2.73;;;0.90;;
28545;SDS011;15749;49.606;8.738;2023-03-13T14:16:42;1.00;;;0.80;;
28545;SDS011;15749;49.606;8.738;2023-03-13T14:19:21;0.87;;;0.60;;
28545;SDS011;15749;49.606;8.738;2023-03-13T14:21:57;0.90;;;0.80;;
28545;SDS011;15749;49.606;8.738;2023-03-13T14:24:28;0.70;;;0.70;;
28545;SDS011;15749;49.606;8.738;2023-03-13T14:26:58;0.70;;;0.60;;
28545;SDS011;15749;49.606;8.738;2023-03-13T14:29:28;1.27;;;0.97;;
28545;SDS011;15749;49.606;8.738;2023-03-13T14:31:58;0.73;;;0.67;;
28545;SDS011;15749;49.606;8.738;2023-03-13T14:34:29;3.13;;;0.87;;
28545;SDS011;15749;49.606;8.738;2023-03-13T14:36:59;1.10;;;0.90;;
28545;SDS011;15749;49.606;8.738;2023-03-13T14:39:44;0.93;;;0.80;;
28545;SDS011;15749;49.606;8.738;2023-03-13T14:42:16;1.53;;;0.83;;
28545;SDS011;15749;49.606;8.738;2023-03-13T14:44:46;0.87;;;0.80;;
28545;SDS011;15749;49.606;8.738;2023-03-13T14:47:19;0.77;;;0.70;;
28545;SDS011;15749;49.606;8.738;2023-03-13T14:49:57;4.47;;;0.80;;
28545;SDS011;15749;49.606;8.738;2023-03-13T14:52:30;1.90;;;0.70;;
28545;SDS011;15749;49.606;8.738;2023-03-13T14:55:02;1.93;;;0.80;;
28545;SDS011;15749;49.606;8.738;2023-03-13T14:57:34;0.70;;;0.67;;
28545;SDS011;15749;49.606;8.738;2023-03-13T15:00:27;1.73;;;0.83;;
28545;SDS011;15749;49.606;8.738;2023-03-13T15:03:11;2.23;;;0.97;;
28545;SDS011;15749;49.606;8.738;2023-03-13T15:06:02;1.23;;;0.77;;
28545;SDS011;15749;49.606;8.738;2023-03-13T15:08:44;2.67;;;1.10;;
28545;SDS011;15749;49.606;8.738;2023-03-13T15:17:04;2.60;;;1.13;;
28545;SDS011;15749;49.606;8.738;2023-03-13T15:19:48;2.17;;;0.77;;
28545;SDS011;15749;49.606;8.738;2023-03-13T15:22:23;3.50;;;1.03;;
28545;SDS011;15749;49.606;8.738;2023-03-13T15:24:55;2.57;;;1.13;;
28545;SDS011;15749;49.606;8.738;2023-03-13T15:27:34;6.13;;;1.43;;
28545;SDS011;15749;49.606;8.738;2023-03-13T15:30:04;2.03;;;0.90;;
28545;SDS011;15749;49.606;8.738;2023-03-13T15:32:36;1.17;;;0.97;;
28545;SDS011;15749;49.606;8.738;2023-03-13T15:35:23;1.97;;;0.87;;
28545;SDS011;15749;49.606;8.738;2023-03-13T15:37:59;2.33;;;1.40;;
28545;SDS011;15749;49.606;8.738;2023-03-13T15:40:29;2.50;;;1.10;;
28545;SDS011;15749;49.606;8.738;2023-03-13T15:42:59;0.80;;;0.60;;
28545;SDS011;15749;49.606;8.738;2023-03-13T15:45:28;1.27;;;0.83;;
28545;SDS011;15749;49.606;8.738;2023-03-13T15:47:58;3.30;;;1.23;;
28545;SDS011;15749;49.606;8.738;2023-03-13T15:50:28;1.73;;;0.90;;
28545;SDS011;15749;49.606;8.738;2023-03-13T15:52:59;2.63;;;1.10;;
28545;SDS011;15749;49.606;8.738;2023-03-13T15:55:28;2.60;;;0.80;;
28545;SDS011;15749;49.606;8.738;2023-03-13T15:57:58;2.57;;;1.00;;
28545;SDS011;15749;49.606;8.738;2023-03-13T16:00:27;1.20;;;0.60;;
28545;SDS011;15749;49.606;8.738;2023-03-13T16:02:57;0.60;;;0.57;;
28545;SDS011;15749;49.606;8.738;2023-03-13T16:05:27;1.77;;;0.40;;
28545;SDS011;15749;49.606;8.738;2023-03-13T16:07:56;1.03;;;0.40;;